N98CK KMSN-KIND
Flight info
| Callsign | N98CK |
|---|---|
| Flight time | 0h 57m |
| Altitude | 38000 |
| Route | DCT WAITS DCT OBK DCT BRBIE JAKKS2 |
| Aircraft | C750/M-VGD/C |
Departure
| Time | 2026-05-06 00:42 |
|---|---|
| Airport | Dane County Regional Truax Field (KMSN) |
Arrival
| Time | 2026-05-06 01:39 |
|---|---|
| Airport | Indianapolis International Airport (KIND) |
| Time | Latitude | Longitude | Altitude | Speed | Heading |
|---|---|---|---|---|---|
| 2026-05-06 00:27 | 43.14122 | -89.32799 | 868 ft | 0 kts | 0° |
| 2026-05-06 00:39 | 43.14129 | -89.32797 | 868 ft | 5 kts | 11° |
| 2026-05-06 00:39 | 43.14132 | -89.32784 | 868 ft | 4 kts | 90° |
| 2026-05-06 00:40 | 43.14091 | -89.32747 | 868 ft | 10 kts | 155° |
| 2026-05-06 00:40 | 43.14022 | -89.32755 | 868 ft | 11 kts | 189° |
| 2026-05-06 00:40 | 43.13933 | -89.32761 | 867 ft | 14 kts | 179° |
| 2026-05-06 00:40 | 43.13834 | -89.32764 | 865 ft | 14 kts | 181° |
| 2026-05-06 00:41 | 43.13782 | -89.32834 | 866 ft | 9 kts | 279° |
| 2026-05-06 00:41 | 43.13792 | -89.32858 | 866 ft | 0 kts | 306° |
| 2026-05-06 00:42 | 43.13891 | -89.32989 | 869 ft | 65 kts | 316° |
| 2026-05-06 00:42 | 43.14463 | -89.33732 | 939 ft | 139 kts | 316° |
| 2026-05-06 00:42 | 43.15172 | -89.34623 | 1647 ft | 137 kts | 318° |
| 2026-05-06 00:42 | 43.15879 | -89.35452 | 2541 ft | 129 kts | 319° |
| 2026-05-06 00:43 | 43.16569 | -89.36213 | 3239 ft | 137 kts | 320° |
| 2026-05-06 00:43 | 43.17390 | -89.37099 | 3665 ft | 161 kts | 321° |
| 2026-05-06 00:43 | 43.18281 | -89.38052 | 4445 ft | 161 kts | 321° |
| 2026-05-06 00:43 | 43.19313 | -89.38655 | 5144 ft | 167 kts | 348° |
| 2026-05-06 00:44 | 43.20482 | -89.38530 | 5877 ft | 174 kts | 11° |
| 2026-05-06 00:44 | 43.21542 | -89.37630 | 6551 ft | 187 kts | 40° |
| 2026-05-06 00:44 | 43.22182 | -89.36041 | 7220 ft | 198 kts | 72° |
| 2026-05-06 00:44 | 43.22161 | -89.34132 | 7933 ft | 203 kts | 99° |
| 2026-05-06 00:45 | 43.21899 | -89.32243 | 8694 ft | 206 kts | 100° |
| 2026-05-06 00:45 | 43.21643 | -89.30287 | 9399 ft | 210 kts | 100° |
| 2026-05-06 00:45 | 43.21384 | -89.28293 | 10046 ft | 214 kts | 101° |
| 2026-05-06 00:45 | 43.21118 | -89.26265 | 10583 ft | 215 kts | 102° |
| 2026-05-06 00:46 | 43.20845 | -89.24190 | 10935 ft | 226 kts | 102° |
| 2026-05-06 00:46 | 43.20660 | -89.22785 | 11380 ft | 225 kts | 102° |
| 2026-05-06 00:46 | 43.20379 | -89.20653 | 11945 ft | 230 kts | 103° |
| 2026-05-06 00:46 | 43.20090 | -89.18468 | 12508 ft | 235 kts | 103° |
| 2026-05-06 00:47 | 43.19798 | -89.16258 | 12896 ft | 241 kts | 104° |
| 2026-05-06 00:47 | 43.19399 | -89.13242 | 13697 ft | 244 kts | 104° |
| 2026-05-06 00:47 | 43.19193 | -89.11687 | 14021 ft | 248 kts | 105° |
| 2026-05-06 00:47 | 43.18882 | -89.09345 | 14513 ft | 252 kts | 105° |
| 2026-05-06 00:48 | 43.18566 | -89.06969 | 15029 ft | 255 kts | 105° |
| 2026-05-06 00:48 | 43.18246 | -89.04562 | 15529 ft | 259 kts | 105° |
| 2026-05-06 00:48 | 43.17918 | -89.02109 | 16043 ft | 263 kts | 105° |
| 2026-05-06 00:48 | 43.17586 | -88.99625 | 16561 ft | 267 kts | 105° |
| 2026-05-06 00:49 | 43.17253 | -88.97137 | 17082 ft | 271 kts | 105° |
| 2026-05-06 00:49 | 43.16909 | -88.94572 | 17607 ft | 275 kts | 105° |
| 2026-05-06 00:49 | 43.16560 | -88.91971 | 18154 ft | 279 kts | 106° |
| 2026-05-06 00:49 | 43.16206 | -88.89340 | 18635 ft | 283 kts | 106° |
| 2026-05-06 00:50 | 43.15846 | -88.86670 | 19052 ft | 291 kts | 106° |
| 2026-05-06 00:50 | 43.15458 | -88.83842 | 19203 ft | 309 kts | 105° |
| 2026-05-06 00:50 | 43.15091 | -88.81048 | 20152 ft | 289 kts | 106° |
| 2026-05-06 00:50 | 43.14725 | -88.78334 | 20655 ft | 294 kts | 107° |
| 2026-05-06 00:51 | 43.14339 | -88.75565 | 21133 ft | 298 kts | 107° |
| 2026-05-06 00:51 | 43.13959 | -88.72768 | 21666 ft | 300 kts | 107° |
| 2026-05-06 00:51 | 43.13576 | -88.69943 | 22173 ft | 303 kts | 107° |
| 2026-05-06 00:51 | 43.13186 | -88.67103 | 22679 ft | 305 kts | 108° |
| 2026-05-06 00:52 | 43.12444 | -88.64454 | 23045 ft | 290 kts | 136° |
| 2026-05-06 00:52 | 43.11136 | -88.62580 | 23594 ft | 263 kts | 160° |
| 2026-05-06 00:52 | 43.09609 | -88.61350 | 24043 ft | 253 kts | 168° |
| 2026-05-06 00:52 | 43.08064 | -88.60174 | 24468 ft | 255 kts | 168° |
| 2026-05-06 00:53 | 43.06508 | -88.58975 | 24889 ft | 258 kts | 168° |
| 2026-05-06 00:53 | 43.04938 | -88.57765 | 25309 ft | 260 kts | 168° |
| 2026-05-06 00:53 | 43.03357 | -88.56553 | 25720 ft | 261 kts | 168° |
| 2026-05-06 00:53 | 43.01765 | -88.55333 | 26148 ft | 264 kts | 168° |
| 2026-05-06 00:54 | 43.00158 | -88.54101 | 26574 ft | 266 kts | 168° |
| 2026-05-06 00:54 | 42.98539 | -88.52860 | 26990 ft | 268 kts | 168° |
| 2026-05-06 00:54 | 42.96908 | -88.51612 | 27395 ft | 270 kts | 168° |
| 2026-05-06 00:54 | 42.95264 | -88.50353 | 27814 ft | 272 kts | 168° |
| 2026-05-06 00:55 | 42.93623 | -88.49099 | 28226 ft | 274 kts | 168° |
| 2026-05-06 00:55 | 42.91954 | -88.47823 | 28648 ft | 276 kts | 168° |
| 2026-05-06 00:55 | 42.90271 | -88.46538 | 29064 ft | 278 kts | 168° |
| 2026-05-06 00:55 | 42.88576 | -88.45244 | 29470 ft | 280 kts | 168° |
| 2026-05-06 00:56 | 42.86868 | -88.43941 | 29863 ft | 282 kts | 168° |
| 2026-05-06 00:56 | 42.85144 | -88.42628 | 30196 ft | 285 kts | 168° |
| 2026-05-06 00:56 | 42.83404 | -88.41303 | 30504 ft | 288 kts | 169° |
| 2026-05-06 00:56 | 42.81644 | -88.39964 | 30810 ft | 291 kts | 169° |
| 2026-05-06 00:57 | 42.79868 | -88.38612 | 31112 ft | 293 kts | 170° |
| 2026-05-06 00:57 | 42.78077 | -88.37251 | 31414 ft | 296 kts | 170° |
| 2026-05-06 00:57 | 42.76267 | -88.35876 | 31707 ft | 299 kts | 171° |
| 2026-05-06 00:57 | 42.74439 | -88.34489 | 31991 ft | 302 kts | 171° |
| 2026-05-06 00:58 | 42.72592 | -88.33087 | 32285 ft | 305 kts | 172° |
| 2026-05-06 00:58 | 42.70729 | -88.31674 | 32569 ft | 308 kts | 172° |
| 2026-05-06 00:58 | 42.68871 | -88.30267 | 32845 ft | 311 kts | 173° |
| 2026-05-06 00:58 | 42.66966 | -88.28824 | 33129 ft | 314 kts | 173° |
| 2026-05-06 00:59 | 42.65046 | -88.27372 | 33409 ft | 317 kts | 173° |
| 2026-05-06 00:59 | 42.63110 | -88.25908 | 33682 ft | 319 kts | 174° |
| 2026-05-06 00:59 | 42.61161 | -88.24436 | 33931 ft | 322 kts | 174° |
| 2026-05-06 00:59 | 42.59195 | -88.22951 | 34175 ft | 324 kts | 173° |
| 2026-05-06 01:00 | 42.57213 | -88.21453 | 34422 ft | 326 kts | 173° |
| 2026-05-06 01:00 | 42.55223 | -88.19953 | 34657 ft | 328 kts | 173° |
| 2026-05-06 01:00 | 42.53223 | -88.18447 | 34900 ft | 330 kts | 173° |
| 2026-05-06 01:00 | 42.51208 | -88.16931 | 35132 ft | 332 kts | 172° |
| 2026-05-06 01:01 | 42.49210 | -88.15426 | 35355 ft | 333 kts | 172° |
| 2026-05-06 01:01 | 42.47177 | -88.13899 | 35581 ft | 335 kts | 172° |
| 2026-05-06 01:01 | 42.45129 | -88.12361 | 35797 ft | 337 kts | 172° |
| 2026-05-06 01:01 | 42.43074 | -88.10818 | 36021 ft | 339 kts | 172° |
| 2026-05-06 01:02 | 42.41002 | -88.09264 | 36246 ft | 341 kts | 171° |
| 2026-05-06 01:02 | 42.38918 | -88.07702 | 36474 ft | 343 kts | 171° |
| 2026-05-06 01:02 | 42.36823 | -88.06134 | 36682 ft | 345 kts | 171° |
| 2026-05-06 01:02 | 42.34719 | -88.04560 | 36896 ft | 347 kts | 171° |
| 2026-05-06 01:03 | 42.32605 | -88.02979 | 37109 ft | 348 kts | 171° |
| 2026-05-06 01:03 | 42.30473 | -88.01386 | 37317 ft | 350 kts | 170° |
| 2026-05-06 01:03 | 42.28336 | -87.99790 | 37539 ft | 352 kts | 170° |
| 2026-05-06 01:03 | 42.26187 | -87.98188 | 37745 ft | 353 kts | 170° |
| 2026-05-06 01:04 | 42.24016 | -87.96832 | 37848 ft | 336 kts | 181° |
| 2026-05-06 01:04 | 42.19493 | -87.95670 | 37895 ft | 333 kts | 198° |
| 2026-05-06 01:05 | 42.14794 | -87.96129 | 37901 ft | 353 kts | 203° |
| 2026-05-06 01:05 | 42.12284 | -87.96440 | 37901 ft | 371 kts | 202° |
| 2026-05-06 01:05 | 42.09654 | -87.96750 | 37898 ft | 387 kts | 201° |
| 2026-05-06 01:05 | 42.06922 | -87.97088 | 37900 ft | 402 kts | 201° |
| 2026-05-06 01:06 | 42.04084 | -87.97451 | 37883 ft | 417 kts | 201° |
| 2026-05-06 01:06 | 42.01146 | -87.97819 | 37874 ft | 431 kts | 200° |
| 2026-05-06 01:06 | 41.98112 | -87.98192 | 37874 ft | 445 kts | 200° |
| 2026-05-06 01:06 | 41.94988 | -87.98578 | 37869 ft | 457 kts | 199° |
| 2026-05-06 01:07 | 41.91776 | -87.98979 | 37869 ft | 469 kts | 199° |
| 2026-05-06 01:07 | 41.85146 | -87.99799 | 37877 ft | 487 kts | 199° |
| 2026-05-06 01:08 | 41.78372 | -88.00633 | 37879 ft | 495 kts | 198° |
| 2026-05-06 01:08 | 41.71491 | -88.01478 | 37872 ft | 497 kts | 198° |
| 2026-05-06 01:08 | 41.67982 | -88.01578 | 37865 ft | 511 kts | 191° |
| 2026-05-06 01:09 | 41.64395 | -88.01144 | 37862 ft | 525 kts | 185° |
| 2026-05-06 01:09 | 41.60763 | -88.00143 | 37863 ft | 540 kts | 178° |
| 2026-05-06 01:09 | 41.57148 | -87.98583 | 37876 ft | 549 kts | 173° |
| 2026-05-06 01:10 | 41.49919 | -87.95193 | 37889 ft | 549 kts | 173° |
| 2026-05-06 01:10 | 41.42739 | -87.91875 | 37881 ft | 550 kts | 173° |
| 2026-05-06 01:11 | 41.35513 | -87.88507 | 37878 ft | 550 kts | 173° |
| 2026-05-06 01:11 | 41.28257 | -87.85164 | 37878 ft | 550 kts | 173° |
| 2026-05-06 01:12 | 41.21006 | -87.81808 | 37883 ft | 552 kts | 173° |
| 2026-05-06 01:12 | 41.13794 | -87.78494 | 37888 ft | 552 kts | 173° |
| 2026-05-06 01:13 | 41.06533 | -87.75154 | 37889 ft | 552 kts | 173° |
| 2026-05-06 01:13 | 41.02972 | -87.73502 | 37290 ft | 532 kts | 173° |
| 2026-05-06 01:13 | 40.99545 | -87.71914 | 36616 ft | 513 kts | 174° |
| 2026-05-06 01:13 | 40.96219 | -87.70404 | 35946 ft | 496 kts | 175° |
| 2026-05-06 01:14 | 40.89787 | -87.67496 | 34670 ft | 487 kts | 175° |
| 2026-05-06 01:14 | 40.86561 | -87.66028 | 34017 ft | 493 kts | 175° |
| 2026-05-06 01:14 | 40.83314 | -87.64545 | 33349 ft | 494 kts | 174° |
| 2026-05-06 01:15 | 40.80078 | -87.63058 | 32702 ft | 491 kts | 173° |
| 2026-05-06 01:15 | 40.76858 | -87.61593 | 32051 ft | 488 kts | 173° |
| 2026-05-06 01:15 | 40.73654 | -87.60147 | 31408 ft | 485 kts | 172° |
| 2026-05-06 01:15 | 40.70473 | -87.58705 | 30764 ft | 483 kts | 171° |
| 2026-05-06 01:16 | 40.67340 | -87.57281 | 30138 ft | 480 kts | 171° |
| 2026-05-06 01:16 | 40.64213 | -87.55847 | 29464 ft | 472 kts | 169° |
| 2026-05-06 01:16 | 40.61243 | -87.53920 | 28795 ft | 483 kts | 156° |
| 2026-05-06 01:16 | 40.58598 | -87.51123 | 28174 ft | 490 kts | 144° |
| 2026-05-06 01:17 | 40.56194 | -87.47966 | 27567 ft | 486 kts | 142° |
| 2026-05-06 01:17 | 40.53831 | -87.44831 | 26925 ft | 478 kts | 142° |
| 2026-05-06 01:17 | 40.51489 | -87.41774 | 26292 ft | 471 kts | 143° |
| 2026-05-06 01:17 | 40.49171 | -87.38776 | 25674 ft | 464 kts | 143° |
| 2026-05-06 01:18 | 40.46919 | -87.35842 | 25079 ft | 457 kts | 142° |
| 2026-05-06 01:18 | 40.44710 | -87.32871 | 24458 ft | 454 kts | 139° |
| 2026-05-06 01:18 | 40.42709 | -87.29679 | 23870 ft | 451 kts | 136° |
| 2026-05-06 01:18 | 40.40766 | -87.26482 | 23250 ft | 444 kts | 135° |
| 2026-05-06 01:19 | 40.38830 | -87.23347 | 22650 ft | 441 kts | 136° |
| 2026-05-06 01:19 | 40.36878 | -87.20246 | 22068 ft | 439 kts | 136° |
| 2026-05-06 01:19 | 40.34946 | -87.17156 | 21490 ft | 437 kts | 135° |
| 2026-05-06 01:19 | 40.33040 | -87.14073 | 20914 ft | 434 kts | 135° |
| 2026-05-06 01:20 | 40.31140 | -87.11012 | 20346 ft | 431 kts | 135° |
| 2026-05-06 01:20 | 40.29240 | -87.07977 | 19778 ft | 429 kts | 135° |
| 2026-05-06 01:20 | 40.27353 | -87.04964 | 19212 ft | 427 kts | 135° |
| 2026-05-06 01:20 | 40.25484 | -87.01968 | 18656 ft | 424 kts | 135° |
| 2026-05-06 01:21 | 40.23622 | -86.98986 | 18086 ft | 421 kts | 135° |
| 2026-05-06 01:21 | 40.21774 | -86.96036 | 17505 ft | 417 kts | 135° |
| 2026-05-06 01:21 | 40.19938 | -86.93111 | 16959 ft | 414 kts | 135° |
| 2026-05-06 01:21 | 40.18140 | -86.90245 | 16421 ft | 411 kts | 135° |
| 2026-05-06 01:22 | 40.16327 | -86.87385 | 15878 ft | 405 kts | 137° |
| 2026-05-06 01:22 | 40.14396 | -86.84735 | 15354 ft | 400 kts | 141° |
| 2026-05-06 01:22 | 40.12484 | -86.82108 | 14830 ft | 397 kts | 140° |
| 2026-05-06 01:22 | 40.10598 | -86.79485 | 14314 ft | 394 kts | 140° |
| 2026-05-06 01:23 | 40.08725 | -86.76902 | 13801 ft | 390 kts | 141° |
| 2026-05-06 01:23 | 40.06911 | -86.74410 | 13290 ft | 354 kts | 141° |
| 2026-05-06 01:23 | 40.05276 | -86.72152 | 12895 ft | 337 kts | 141° |
| 2026-05-06 01:23 | 40.03752 | -86.70063 | 12497 ft | 298 kts | 142° |
| 2026-05-06 01:24 | 40.02327 | -86.68126 | 12120 ft | 293 kts | 142° |
| 2026-05-06 01:24 | 40.00930 | -86.66231 | 11742 ft | 285 kts | 142° |
| 2026-05-06 01:24 | 39.99556 | -86.64350 | 11374 ft | 283 kts | 142° |
| 2026-05-06 01:24 | 39.98234 | -86.62534 | 11019 ft | 280 kts | 141° |
| 2026-05-06 01:25 | 39.96893 | -86.60702 | 10654 ft | 277 kts | 141° |
| 2026-05-06 01:25 | 39.95575 | -86.58865 | 10295 ft | 276 kts | 140° |
| 2026-05-06 01:25 | 39.94281 | -86.57038 | 9993 ft | 272 kts | 140° |
| 2026-05-06 01:25 | 39.92987 | -86.55234 | 9687 ft | 272 kts | 140° |
| 2026-05-06 01:26 | 39.91702 | -86.53448 | 9317 ft | 270 kts | 140° |
| 2026-05-06 01:26 | 39.90419 | -86.51663 | 8966 ft | 270 kts | 139° |
| 2026-05-06 01:26 | 39.89140 | -86.49880 | 8614 ft | 268 kts | 138° |
| 2026-05-06 01:26 | 39.87874 | -86.48116 | 8264 ft | 265 kts | 138° |
| 2026-05-06 01:27 | 39.86606 | -86.46355 | 7922 ft | 265 kts | 138° |
| 2026-05-06 01:27 | 39.85326 | -86.44638 | 7571 ft | 262 kts | 141° |
| 2026-05-06 01:27 | 39.84027 | -86.42969 | 7236 ft | 262 kts | 137° |
| 2026-05-06 01:27 | 39.82798 | -86.41272 | 6906 ft | 261 kts | 137° |
| 2026-05-06 01:28 | 39.81523 | -86.39564 | 6567 ft | 257 kts | 138° |
| 2026-05-06 01:28 | 39.80105 | -86.38276 | 6145 ft | 251 kts | 161° |
| 2026-05-06 01:28 | 39.78414 | -86.37992 | 5970 ft | 243 kts | 187° |
| 2026-05-06 01:28 | 39.76829 | -86.38665 | 5971 ft | 240 kts | 212° |
| 2026-05-06 01:29 | 39.75573 | -86.40065 | 6023 ft | 239 kts | 225° |
| 2026-05-06 01:29 | 39.74389 | -86.41579 | 6019 ft | 239 kts | 226° |
| 2026-05-06 01:29 | 39.73198 | -86.43080 | 6010 ft | 239 kts | 225° |
| 2026-05-06 01:29 | 39.72001 | -86.44581 | 6008 ft | 239 kts | 225° |
| 2026-05-06 01:30 | 39.70805 | -86.46084 | 6006 ft | 239 kts | 225° |
| 2026-05-06 01:30 | 39.69613 | -86.47584 | 6006 ft | 239 kts | 225° |
| 2026-05-06 01:30 | 39.68423 | -86.49087 | 6009 ft | 239 kts | 225° |
| 2026-05-06 01:30 | 39.67232 | -86.50593 | 6007 ft | 239 kts | 225° |
| 2026-05-06 01:31 | 39.66044 | -86.52086 | 6005 ft | 238 kts | 225° |
| 2026-05-06 01:31 | 39.64845 | -86.53572 | 6010 ft | 237 kts | 225° |
| 2026-05-06 01:31 | 39.63669 | -86.55040 | 6003 ft | 236 kts | 225° |
| 2026-05-06 01:31 | 39.62483 | -86.56531 | 6002 ft | 237 kts | 225° |
| 2026-05-06 01:32 | 39.61293 | -86.58023 | 6000 ft | 238 kts | 225° |
| 2026-05-06 01:32 | 39.60103 | -86.59513 | 5971 ft | 240 kts | 225° |
| 2026-05-06 01:32 | 39.58910 | -86.61005 | 5539 ft | 234 kts | 225° |
| 2026-05-06 01:32 | 39.57735 | -86.62475 | 5669 ft | 234 kts | 225° |
| 2026-05-06 01:33 | 39.56551 | -86.63942 | 5748 ft | 233 kts | 223° |
| 2026-05-06 01:33 | 39.55061 | -86.64784 | 5616 ft | 243 kts | 189° |
| 2026-05-06 01:33 | 39.53405 | -86.64353 | 4967 ft | 249 kts | 154° |
| 2026-05-06 01:33 | 39.52243 | -86.62689 | 4324 ft | 258 kts | 115° |
| 2026-05-06 01:34 | 39.51950 | -86.60471 | 3770 ft | 244 kts | 88° |
| 2026-05-06 01:34 | 39.51996 | -86.58296 | 3355 ft | 237 kts | 85° |
| 2026-05-06 01:34 | 39.52131 | -86.56199 | 2987 ft | 232 kts | 74° |
| 2026-05-06 01:34 | 39.52635 | -86.54250 | 3024 ft | 231 kts | 65° |
| 2026-05-06 01:35 | 39.53015 | -86.52973 | 3015 ft | 228 kts | 65° |
| 2026-05-06 01:35 | 39.53781 | -86.50414 | 3017 ft | 230 kts | 65° |
| 2026-05-06 01:35 | 39.54421 | -86.48531 | 2962 ft | 228 kts | 54° |
| 2026-05-06 01:35 | 39.55645 | -86.47352 | 2911 ft | 217 kts | 21° |
| 2026-05-06 01:36 | 39.57103 | -86.46770 | 3016 ft | 222 kts | 15° |
| 2026-05-06 01:36 | 39.58102 | -86.46395 | 3024 ft | 221 kts | 15° |
| 2026-05-06 01:36 | 39.59514 | -86.45619 | 2979 ft | 223 kts | 30° |
| 2026-05-06 01:36 | 39.60764 | -86.44423 | 3011 ft | 226 kts | 35° |
| 2026-05-06 01:37 | 39.62002 | -86.43183 | 3009 ft | 225 kts | 36° |
| 2026-05-06 01:37 | 39.63239 | -86.41955 | 3007 ft | 223 kts | 35° |
| 2026-05-06 01:37 | 39.64480 | -86.40721 | 3008 ft | 225 kts | 35° |
| 2026-05-06 01:37 | 39.65716 | -86.39490 | 3004 ft | 224 kts | 35° |
| 2026-05-06 01:38 | 39.66951 | -86.38260 | 2907 ft | 226 kts | 35° |
| 2026-05-06 01:38 | 39.68127 | -86.36930 | 2325 ft | 221 kts | 45° |
| 2026-05-06 01:38 | 39.68956 | -86.35227 | 1809 ft | 226 kts | 63° |
| 2026-05-06 01:38 | 39.69494 | -86.33553 | 1207 ft | 169 kts | 56° |
| 2026-05-06 01:39 | 39.70209 | -86.32618 | 930 ft | 130 kts | 39° |
| 2026-05-06 01:39 | 39.70814 | -86.31857 | 759 ft | 111 kts | 43° |
| 2026-05-06 01:39 | 39.71281 | -86.31264 | 753 ft | 68 kts | 45° |
| 2026-05-06 01:39 | 39.71506 | -86.30976 | 762 ft | 36 kts | 44° |
| 2026-05-06 01:40 | 39.71663 | -86.30780 | 763 ft | 27 kts | 44° |
| 2026-05-06 01:40 | 39.71791 | -86.30615 | 763 ft | 29 kts | 46° |
| 2026-05-06 01:40 | 39.71946 | -86.30426 | 766 ft | 28 kts | 39° |
| 2026-05-06 01:40 | 39.72099 | -86.30374 | 769 ft | 17 kts | 351° |
| 2026-05-06 01:41 | 39.72121 | -86.30379 | 770 ft | 0 kts | 351° |
| 2026-05-06 01:41 | 39.72125 | -86.30380 | 770 ft | 0 kts | 351° |
| 2026-05-06 01:42 | 39.72134 | -86.30382 | 770 ft | 7 kts | 351° |
| 2026-05-06 01:42 | 39.72179 | -86.30387 | 773 ft | 11 kts | 0° |
| 2026-05-06 01:42 | 39.72260 | -86.30343 | 776 ft | 15 kts | 41° |
| 2026-05-06 01:42 | 39.72351 | -86.30226 | 777 ft | 21 kts | 44° |
| 2026-05-06 01:43 | 39.72436 | -86.30121 | 780 ft | 14 kts | 43° |
| 2026-05-06 01:43 | 39.72496 | -86.30040 | 779 ft | 13 kts | 46° |
| 2026-05-06 01:43 | 39.72563 | -86.29954 | 779 ft | 13 kts | 41° |
| 2026-05-06 01:43 | 39.72629 | -86.29869 | 781 ft | 14 kts | 48° |
| 2026-05-06 01:44 | 39.72700 | -86.29768 | 780 ft | 16 kts | 31° |
| 2026-05-06 01:44 | 39.72784 | -86.29678 | 784 ft | 15 kts | 47° |
| 2026-05-06 01:44 | 39.72858 | -86.29580 | 786 ft | 15 kts | 43° |
| 2026-05-06 01:44 | 39.72935 | -86.29481 | 789 ft | 16 kts | 45° |
| 2026-05-06 01:45 | 39.73011 | -86.29385 | 792 ft | 15 kts | 44° |
| 2026-05-06 01:45 | 39.73090 | -86.29286 | 793 ft | 17 kts | 45° |
| 2026-05-06 01:45 | 39.73177 | -86.29174 | 794 ft | 18 kts | 44° |
| 2026-05-06 01:45 | 39.73269 | -86.29055 | 793 ft | 20 kts | 45° |
| 2026-05-06 01:46 | 39.73377 | -86.28917 | 792 ft | 22 kts | 43° |
| 2026-05-06 01:46 | 39.73474 | -86.28787 | 791 ft | 17 kts | 45° |
| 2026-05-06 01:46 | 39.73512 | -86.28692 | 792 ft | 8 kts | 105° |
| 2026-05-06 01:46 | 39.73467 | -86.28624 | 791 ft | 12 kts | 139° |
| 2026-05-06 01:47 | 39.73399 | -86.28538 | 791 ft | 15 kts | 134° |
| 2026-05-06 01:47 | 39.73335 | -86.28448 | 792 ft | 11 kts | 131° |
| 2026-05-06 01:47 | 39.73289 | -86.28391 | 792 ft | 9 kts | 139° |
| 2026-05-06 01:47 | 39.73235 | -86.28321 | 792 ft | 14 kts | 134° |
| 2026-05-06 01:48 | 39.73157 | -86.28217 | 795 ft | 17 kts | 134° |
| 2026-05-06 01:48 | 39.73135 | -86.28129 | 796 ft | 6 kts | 66° |